createdAt,value
2017-12-25T00:00:14.776Z,8.30
2017-12-25T00:02:44.016Z,8.20
2017-12-25T00:05:13.269Z,8.30
2017-12-25T00:07:42.557Z,8.30
2017-12-25T00:10:12.811Z,8.30
2017-12-25T00:12:42.925Z,8.30
2017-12-25T00:15:12.184Z,8.30
2017-12-25T00:17:41.457Z,8.30
2017-12-25T00:20:10.714Z,8.30
2017-12-25T00:22:40.036Z,8.40
2017-12-25T00:25:09.268Z,8.50
2017-12-25T00:27:38.553Z,8.40
2017-12-25T00:30:07.802Z,8.50
2017-12-25T00:32:37.882Z,8.50
2017-12-25T00:35:07.223Z,8.50
2017-12-25T00:37:37.274Z,8.50
2017-12-25T00:40:06.567Z,8.50
2017-12-25T00:42:35.892Z,8.60
2017-12-25T00:45:05.194Z,8.50
2017-12-25T00:47:35.294Z,8.60
2017-12-25T00:50:04.577Z,8.70
2017-12-25T00:52:34.697Z,8.60
2017-12-25T00:55:04.104Z,8.60
2017-12-25T00:57:33.388Z,8.60
2017-12-25T01:00:02.839Z,8.70
2017-12-25T01:02:32.925Z,8.70
2017-12-25T01:05:02.966Z,8.70
2017-12-25T01:07:32.210Z,8.70
2017-12-25T01:10:01.489Z,8.60
2017-12-25T01:12:30.749Z,8.70
2017-12-25T01:15:00.146Z,8.60
2017-12-25T01:17:29.437Z,8.60
2017-12-25T01:19:58.684Z,8.60
2017-12-25T01:22:27.925Z,8.60
2017-12-25T01:24:57.359Z,8.60
2017-12-25T01:27:26.655Z,8.60
2017-12-25T01:29:56.133Z,8.50
2017-12-25T01:32:25.389Z,8.50
2017-12-25T01:34:54.675Z,8.40
2017-12-25T01:37:24.670Z,8.40
2017-12-25T01:39:53.952Z,8.40
2017-12-25T01:42:23.230Z,8.40
2017-12-25T01:44:52.485Z,8.50
2017-12-25T01:47:22.509Z,8.40
2017-12-25T01:49:51.742Z,8.40
2017-12-25T01:52:22.964Z,8.30
2017-12-25T01:54:52.150Z,8.30
2017-12-25T02:00:44.354Z,8.20
2017-12-25T02:03:13.521Z,8.20
2017-12-25T02:05:52.638Z,8.20
2017-12-25T02:08:33.029Z,8.10
2017-12-25T02:11:01.963Z,8.10
2017-12-25T02:13:30.934Z,8.10
2017-12-25T02:15:59.905Z,8.10
2017-12-25T02:18:29.536Z,8.20
2017-12-25T02:20:58.806Z,8.20
2017-12-25T02:23:28.064Z,8.20
2017-12-25T02:25:57.308Z,8.20
2017-12-25T02:28:26.567Z,8.20
2017-12-25T02:30:55.957Z,8.20
2017-12-25T02:33:25.199Z,8.20
2017-12-25T02:35:55.474Z,8.00
2017-12-25T02:38:24.876Z,8.00
2017-12-25T02:40:54.205Z,8.00
2017-12-25T02:43:23.575Z,8.10
2017-12-25T02:45:52.835Z,8.10
2017-12-25T02:48:22.217Z,8.10
2017-12-25T02:50:51.555Z,8.00
2017-12-25T02:53:20.934Z,8.00
2017-12-25T02:55:50.341Z,8.00
2017-12-25T02:58:20.346Z,7.90
2017-12-25T03:00:50.594Z,8.00
2017-12-25T03:03:20.598Z,7.90
2017-12-25T03:05:50.633Z,7.90
2017-12-25T03:08:19.937Z,7.90
2017-12-25T03:10:50.056Z,7.90
2017-12-25T03:13:19.297Z,7.90
2017-12-25T03:15:48.749Z,7.80
2017-12-25T03:18:18.151Z,7.90
2017-12-25T03:20:48.157Z,7.80
2017-12-25T03:23:17.745Z,7.80
2017-12-25T03:25:47.105Z,7.90
2017-12-25T03:28:17.097Z,7.80
2017-12-25T03:30:46.686Z,7.80
2017-12-25T03:33:15.986Z,7.90
2017-12-25T03:35:45.298Z,7.90
2017-12-25T03:38:15.299Z,8.00
2017-12-25T03:40:44.553Z,8.00
2017-12-25T03:43:13.788Z,7.90
2017-12-25T03:45:43.313Z,8.00
2017-12-25T03:48:12.625Z,8.10
2017-12-25T03:50:42.650Z,8.10
2017-12-25T03:53:12.041Z,8.10
2017-12-25T03:55:41.363Z,8.00
2017-12-25T03:58:11.371Z,8.00
2017-12-25T04:00:40.621Z,7.90
2017-12-25T04:03:09.866Z,8.00
2017-12-25T04:05:39.217Z,7.90
2017-12-25T04:08:08.502Z,7.80
2017-12-25T04:10:38.021Z,7.80
2017-12-25T04:13:07.484Z,7.90
2017-12-25T04:15:37.563Z,7.80
2017-12-25T04:18:06.919Z,7.80
2017-12-25T04:20:36.918Z,7.90
2017-12-25T04:23:06.280Z,7.90
2017-12-25T04:25:35.649Z,7.90
2017-12-25T04:28:05.682Z,8.00
2017-12-25T04:30:34.998Z,8.00
2017-12-25T04:33:04.252Z,8.00
2017-12-25T04:35:33.653Z,8.00
2017-12-25T04:38:03.151Z,8.00
2017-12-25T04:40:32.397Z,8.00
2017-12-25T04:43:02.137Z,7.90
2017-12-25T04:45:31.445Z,7.90
2017-12-25T04:48:00.684Z,7.90
2017-12-25T04:50:30.066Z,7.90
2017-12-25T04:52:59.295Z,8.00
2017-12-25T04:55:28.685Z,7.90
2017-12-25T04:57:58.721Z,8.00
2017-12-25T05:00:28.098Z,8.00
2017-12-25T05:02:57.381Z,8.00
2017-12-25T05:05:27.495Z,7.90
2017-12-25T05:07:56.750Z,7.90
2017-12-25T05:10:25.989Z,7.90
2017-12-25T05:12:55.246Z,7.90
2017-12-25T05:15:24.477Z,7.90
2017-12-25T05:17:53.710Z,7.80
2017-12-25T05:20:23.766Z,7.80
2017-12-25T05:22:53.225Z,7.70
2017-12-25T05:25:22.746Z,7.70
2017-12-25T05:27:51.997Z,7.70
2017-12-25T05:30:21.213Z,7.70
2017-12-25T05:32:50.677Z,7.50
2017-12-25T05:35:20.781Z,7.50
2017-12-25T05:37:50.804Z,7.60
2017-12-25T05:40:20.030Z,7.60
2017-12-25T05:42:49.303Z,7.70
2017-12-25T05:45:19.332Z,7.70
2017-12-25T05:47:48.557Z,7.70
2017-12-25T05:50:17.816Z,7.80
2017-12-25T05:52:47.073Z,7.80
2017-12-25T05:55:16.409Z,7.80
2017-12-25T05:57:45.670Z,7.90
2017-12-25T06:00:14.898Z,7.90
2017-12-25T06:02:44.329Z,7.90
2017-12-25T06:05:14.321Z,7.90
2017-12-25T06:07:43.587Z,7.90
2017-12-25T06:10:13.239Z,7.80
2017-12-25T06:12:42.484Z,7.70
2017-12-25T06:15:11.713Z,7.60
2017-12-25T06:17:40.973Z,7.60
2017-12-25T06:20:10.246Z,7.50
2017-12-25T06:22:39.578Z,7.60
2017-12-25T06:25:09.085Z,7.40
2017-12-25T06:27:38.381Z,7.50
2017-12-25T06:30:07.631Z,7.40
2017-12-25T06:32:36.881Z,7.40
2017-12-25T06:35:06.191Z,7.20
2017-12-25T06:37:36.099Z,7.30
2017-12-25T06:40:05.305Z,7.30
2017-12-25T06:42:34.547Z,7.30
2017-12-25T06:45:03.774Z,7.30
2017-12-25T06:47:33.050Z,7.30
2017-12-25T06:50:02.281Z,7.30
2017-12-25T06:52:32.293Z,7.30
2017-12-25T06:55:01.538Z,7.30
2017-12-25T06:57:30.786Z,7.30
2017-12-25T07:00:00.065Z,7.30
2017-12-25T07:02:29.319Z,7.40
2017-12-25T07:04:58.693Z,7.40
2017-12-25T07:07:27.949Z,7.50
2017-12-25T07:09:57.191Z,7.50
2017-12-25T07:12:26.440Z,7.50
2017-12-25T07:14:55.898Z,7.50
2017-12-25T07:17:25.288Z,7.50
2017-12-25T07:19:54.539Z,7.40
2017-12-25T07:22:23.778Z,7.40
2017-12-25T07:24:53.029Z,7.40
2017-12-25T07:27:22.270Z,7.40
2017-12-25T07:29:51.514Z,7.30
2017-12-25T07:32:21.532Z,7.20
2017-12-25T07:34:50.762Z,7.20
2017-12-25T07:37:20.198Z,7.20
2017-12-25T07:39:49.430Z,7.30
2017-12-25T07:42:18.739Z,7.30
2017-12-25T07:44:47.958Z,7.30
2017-12-25T07:47:17.221Z,7.30
2017-12-25T07:49:46.555Z,7.20
2017-12-25T07:52:16.657Z,7.10
2017-12-25T07:54:46.652Z,7.10
2017-12-25T07:57:16.082Z,7.10
2017-12-25T07:59:46.214Z,7.10
2017-12-25T08:02:16.247Z,7.10
2017-12-25T08:04:45.618Z,7.10
2017-12-25T08:07:14.868Z,7.10
2017-12-25T08:09:44.169Z,7.20
2017-12-25T08:12:13.354Z,7.20
2017-12-25T08:14:42.621Z,7.20
2017-12-25T08:17:11.847Z,7.20
2017-12-25T08:19:41.114Z,7.20
2017-12-25T08:22:10.347Z,7.10
2017-12-25T08:24:39.659Z,7.10
2017-12-25T08:27:08.914Z,7.10
2017-12-25T08:29:38.266Z,7.10
2017-12-25T08:32:07.543Z,7.00
2017-12-25T08:34:36.782Z,7.00
2017-12-25T08:37:06.138Z,7.00
2017-12-25T08:39:35.363Z,7.00
2017-12-25T08:42:04.639Z,7.00
2017-12-25T08:44:33.988Z,7.10
2017-12-25T08:47:03.241Z,7.10
2017-12-25T08:49:32.631Z,7.10
2017-12-25T08:52:01.949Z,7.10
2017-12-25T08:54:31.944Z,7.20
2017-12-25T08:57:01.375Z,7.10
2017-12-25T08:59:31.405Z,6.90
2017-12-25T09:02:00.702Z,6.90
2017-12-25T09:04:29.905Z,7.00
2017-12-25T09:06:59.143Z,7.00
2017-12-25T09:09:28.387Z,7.10
2017-12-25T09:11:57.617Z,7.00
2017-12-25T09:14:26.861Z,7.00
2017-12-25T09:16:56.125Z,7.00
2017-12-25T09:19:25.359Z,6.90
2017-12-25T09:21:55.635Z,6.80
2017-12-25T09:24:25.655Z,6.80
2017-12-25T09:26:54.945Z,6.70
2017-12-25T09:29:24.195Z,6.80
2017-12-25T09:31:53.457Z,6.70
2017-12-25T09:34:23.454Z,6.80
2017-12-25T09:36:52.800Z,6.80
2017-12-25T09:39:22.079Z,6.80
2017-12-25T09:41:51.321Z,6.70
2017-12-25T09:44:20.609Z,6.70
2017-12-25T09:46:49.851Z,6.70
2017-12-25T09:49:19.074Z,6.70
2017-12-25T09:51:48.295Z,6.60
2017-12-25T09:54:17.563Z,6.50
2017-12-25T09:56:47.572Z,6.50
2017-12-25T09:59:16.885Z,6.50
2017-12-25T10:01:46.151Z,6.50
2017-12-25T10:04:15.484Z,6.50
2017-12-25T10:06:44.744Z,6.60
2017-12-25T10:09:14.173Z,6.60
2017-12-25T10:11:43.478Z,6.70
2017-12-25T10:14:12.799Z,6.60
2017-12-25T10:16:42.944Z,6.70
2017-12-25T10:19:12.409Z,6.60
2017-12-25T10:21:41.741Z,6.70
2017-12-25T10:24:11.209Z,6.70
2017-12-25T10:26:40.456Z,6.70
2017-12-25T10:29:11.135Z,6.70
2017-12-25T10:31:40.374Z,6.60
2017-12-25T10:34:09.650Z,6.60
2017-12-25T10:36:38.903Z,6.50
2017-12-25T10:39:08.143Z,6.50
2017-12-25T10:41:37.561Z,6.50
2017-12-25T10:44:07.576Z,6.40
2017-12-25T10:46:36.830Z,6.40
2017-12-25T10:49:06.063Z,6.30
2017-12-25T10:51:35.290Z,6.40
2017-12-25T10:54:04.544Z,6.30
2017-12-25T10:56:33.801Z,6.40
2017-12-25T10:59:03.045Z,6.30
2017-12-25T11:01:32.277Z,6.30
2017-12-25T11:04:02.400Z,6.40
2017-12-25T11:06:32.521Z,6.40
2017-12-25T11:09:02.518Z,6.40
2017-12-25T11:11:32.627Z,6.40
2017-12-25T11:14:02.166Z,6.40
2017-12-25T11:16:31.443Z,6.40
2017-12-25T11:19:01.087Z,6.30
2017-12-25T11:21:30.365Z,6.30
2017-12-25T11:23:59.632Z,6.40
2017-12-25T11:26:28.963Z,6.40
2017-12-25T11:28:58.265Z,6.40
2017-12-25T11:31:27.671Z,6.40
2017-12-25T11:33:56.921Z,6.30
2017-12-25T11:36:26.383Z,6.30
2017-12-25T11:38:55.600Z,6.30
2017-12-25T11:41:25.645Z,6.40
2017-12-25T11:43:55.025Z,6.40
2017-12-25T11:46:25.053Z,6.20
2017-12-25T11:48:54.485Z,6.20
2017-12-25T11:51:23.727Z,6.30
2017-12-25T11:53:53.111Z,6.40
2017-12-25T11:56:22.389Z,6.60
2017-12-25T11:58:51.643Z,6.50
2017-12-25T12:01:21.744Z,6.40
2017-12-25T12:03:51.100Z,6.40
2017-12-25T12:06:20.438Z,6.40
2017-12-25T12:08:49.874Z,6.50
2017-12-25T12:11:19.974Z,6.30
2017-12-25T12:13:49.287Z,6.30
2017-12-25T12:16:18.624Z,6.30
2017-12-25T12:18:47.888Z,6.10
2017-12-25T12:21:17.799Z,6.10
2017-12-25T12:23:47.055Z,6.10
2017-12-25T12:26:16.402Z,6.20
2017-12-25T12:28:45.652Z,6.30
2017-12-25T12:31:15.042Z,6.40
2017-12-25T12:33:44.286Z,6.50
2017-12-25T12:36:13.551Z,6.40
2017-12-25T12:38:42.786Z,6.30
2017-12-25T12:41:12.039Z,6.30
2017-12-25T12:43:41.287Z,6.30
2017-12-25T12:46:10.558Z,6.30
2017-12-25T12:48:40.721Z,6.20
2017-12-25T12:51:09.978Z,6.10
2017-12-25T12:53:39.885Z,6.10
2017-12-25T12:56:09.168Z,6.00
2017-12-25T12:58:38.574Z,5.90
2017-12-25T13:01:08.055Z,5.90
2017-12-25T13:03:37.384Z,5.90
2017-12-25T13:06:07.487Z,6.00
2017-12-25T13:08:37.497Z,6.00
2017-12-25T13:11:06.895Z,6.00
2017-12-25T13:13:36.139Z,6.00
2017-12-25T13:16:05.401Z,6.00
2017-12-25T13:18:35.505Z,6.00
2017-12-25T13:21:04.805Z,6.00
2017-12-25T13:23:34.096Z,6.00
2017-12-25T13:26:03.345Z,6.00
2017-12-25T13:28:33.366Z,6.00
2017-12-25T13:31:02.632Z,6.00
2017-12-25T13:33:33.379Z,6.10
2017-12-25T13:36:02.653Z,6.10
2017-12-25T13:38:31.896Z,6.20
2017-12-25T13:41:01.932Z,6.20
2017-12-25T13:43:31.230Z,6.20
2017-12-25T13:46:00.617Z,6.20
2017-12-25T13:48:30.646Z,6.30
2017-12-25T13:50:59.907Z,6.30
2017-12-25T13:53:30.174Z,6.30
2017-12-25T13:55:59.710Z,6.20
2017-12-25T13:58:29.022Z,6.20
2017-12-25T14:00:59.696Z,6.10
2017-12-25T14:03:28.935Z,6.10
2017-12-25T14:05:58.185Z,6.10
2017-12-25T14:08:27.434Z,6.10
2017-12-25T14:10:56.708Z,6.00
2017-12-25T14:13:26.710Z,6.10
2017-12-25T14:15:55.950Z,6.10
2017-12-25T14:18:25.233Z,6.10
2017-12-25T14:20:54.486Z,5.90
2017-12-25T14:23:23.742Z,5.90
2017-12-25T14:25:52.984Z,5.90
2017-12-25T14:28:22.233Z,5.80
2017-12-25T14:30:52.229Z,5.90
2017-12-25T14:33:21.789Z,5.90
2017-12-25T14:35:51.015Z,5.90
2017-12-25T14:38:20.447Z,5.90
2017-12-25T14:40:50.445Z,5.90
2017-12-25T14:43:19.983Z,5.90
2017-12-25T14:45:49.230Z,5.80
2017-12-25T14:48:18.484Z,5.80
2017-12-25T14:50:48.692Z,5.70
2017-12-25T14:53:17.943Z,5.70
2017-12-25T14:55:47.253Z,5.70
2017-12-25T14:58:16.514Z,5.70
2017-12-25T15:00:45.778Z,5.70
2017-12-25T15:03:15.061Z,5.70
2017-12-25T15:05:44.297Z,5.70
2017-12-25T15:08:13.537Z,5.70
2017-12-25T15:10:42.805Z,5.70
2017-12-25T15:13:12.843Z,5.70
2017-12-25T15:15:42.164Z,5.70
2017-12-25T15:18:11.462Z,5.70
2017-12-25T15:20:40.696Z,5.70
2017-12-25T15:23:09.950Z,5.70
2017-12-25T15:25:39.229Z,5.80
2017-12-25T15:28:09.258Z,5.70
2017-12-25T15:30:38.510Z,5.70
2017-12-25T15:33:07.759Z,5.80
2017-12-25T15:35:37.776Z,5.80
2017-12-25T15:38:07.097Z,5.80
2017-12-25T15:40:36.332Z,5.80
2017-12-25T15:43:05.753Z,5.80
2017-12-25T15:45:35.071Z,5.80
2017-12-25T15:48:05.092Z,5.80
2017-12-25T15:50:34.357Z,5.80
2017-12-25T15:53:03.604Z,5.80
2017-12-25T15:55:32.845Z,5.80
2017-12-25T15:58:02.102Z,5.80
2017-12-25T16:00:31.611Z,5.90
2017-12-25T16:03:00.809Z,5.90
2017-12-25T16:05:30.099Z,6.00
2017-12-25T16:08:00.403Z,5.60
2017-12-25T16:10:29.623Z,5.50
2017-12-25T16:12:58.873Z,5.50
2017-12-25T16:15:28.176Z,5.50
2017-12-25T16:17:57.615Z,5.60
2017-12-25T16:20:26.861Z,5.60
2017-12-25T16:22:56.199Z,5.60
2017-12-25T16:25:25.500Z,5.60
2017-12-25T16:27:54.727Z,5.50
2017-12-25T16:30:23.980Z,5.50
2017-12-25T16:32:53.232Z,5.50
2017-12-25T16:35:23.257Z,5.40
2017-12-25T16:37:52.500Z,5.40
2017-12-25T16:40:21.813Z,5.40
2017-12-25T16:45:26.500Z,5.40
2017-12-25T16:47:56.510Z,5.30
2017-12-25T16:50:25.757Z,5.30
2017-12-25T16:52:55.271Z,5.30
2017-12-25T16:55:24.509Z,5.20
2017-12-25T16:57:54.548Z,5.20
2017-12-25T17:00:23.778Z,5.20
2017-12-25T17:02:53.033Z,5.30
2017-12-25T17:05:23.067Z,5.30
2017-12-25T17:07:52.327Z,5.30
2017-12-25T17:10:21.578Z,5.30
2017-12-25T17:12:50.823Z,5.30
2017-12-25T17:15:20.065Z,5.40
2017-12-25T17:17:49.309Z,5.30
2017-12-25T17:20:18.568Z,5.20
2017-12-25T17:22:48.588Z,5.10
2017-12-25T17:25:17.835Z,5.10
2017-12-25T17:27:47.192Z,5.10
2017-12-25T17:30:16.424Z,5.10
2017-12-25T17:32:45.694Z,5.00
2017-12-25T17:35:15.708Z,4.90
2017-12-25T17:37:44.950Z,4.90
2017-12-25T17:40:14.209Z,5.00
2017-12-25T17:42:43.466Z,5.10
2017-12-25T17:45:12.730Z,5.00
2017-12-25T17:47:41.961Z,5.00
2017-12-25T17:50:11.222Z,5.00
2017-12-25T17:52:40.486Z,4.90
2017-12-25T17:55:09.804Z,4.90
2017-12-25T17:57:39.913Z,4.90
2017-12-25T18:00:09.938Z,4.90
2017-12-25T18:02:39.206Z,4.90
2017-12-25T18:05:08.470Z,4.90
2017-12-25T18:07:37.733Z,4.90
2017-12-25T18:10:07.736Z,4.90
2017-12-25T18:12:36.999Z,5.00
2017-12-25T18:15:06.259Z,4.90
2017-12-25T18:17:36.535Z,4.90
2017-12-25T18:20:05.765Z,4.90
2017-12-25T18:22:35.012Z,4.90
2017-12-25T18:25:04.296Z,5.00
2017-12-25T18:27:34.386Z,4.90
2017-12-25T18:30:03.663Z,4.90
2017-12-25T18:32:32.950Z,5.00
2017-12-25T18:35:02.191Z,5.10
2017-12-25T18:37:31.442Z,5.10
2017-12-25T18:40:01.303Z,5.10
2017-12-25T18:42:30.549Z,5.20
2017-12-25T18:44:59.817Z,5.20
2017-12-25T18:47:29.058Z,5.40
2017-12-25T18:50:00.235Z,5.40
2017-12-25T18:52:29.584Z,5.40
2017-12-25T18:54:59.600Z,5.40
2017-12-25T18:57:29.074Z,5.40
2017-12-25T18:59:58.334Z,5.40
2017-12-25T19:02:27.586Z,5.30
2017-12-25T19:04:57.593Z,5.30
2017-12-25T19:07:26.873Z,5.30
2017-12-25T19:09:56.145Z,5.30
2017-12-25T19:12:26.178Z,5.10
2017-12-25T19:14:55.414Z,5.10
2017-12-25T19:17:24.674Z,5.00
2017-12-25T19:19:53.922Z,5.00
2017-12-25T19:22:23.227Z,5.00
2017-12-25T19:24:53.374Z,5.00
2017-12-25T19:27:22.829Z,4.90
2017-12-25T19:29:52.159Z,4.90
2017-12-25T19:32:22.279Z,4.70
2017-12-25T19:34:52.297Z,4.70
2017-12-25T19:37:21.543Z,4.70
2017-12-25T19:39:50.787Z,4.60
2017-12-25T19:42:20.497Z,4.60
2017-12-25T19:44:49.781Z,4.70
2017-12-25T19:47:19.014Z,4.60
2017-12-25T19:49:48.300Z,4.70
2017-12-25T19:52:17.753Z,4.60
2017-12-25T19:54:47.003Z,4.60
2017-12-25T19:57:16.234Z,4.60
2017-12-25T19:59:45.639Z,4.70
2017-12-25T20:02:14.873Z,4.70
2017-12-25T20:04:44.107Z,4.80
2017-12-25T20:07:13.382Z,4.80
2017-12-25T20:09:42.626Z,4.80
2017-12-25T20:12:12.943Z,4.80
2017-12-25T20:14:42.816Z,4.80
2017-12-25T20:17:12.148Z,4.80
2017-12-25T20:19:41.583Z,4.80
2017-12-25T20:22:10.975Z,4.70
2017-12-25T20:24:40.289Z,4.70
2017-12-25T20:27:10.286Z,4.60
2017-12-25T20:29:40.344Z,4.60
2017-12-25T20:32:09.897Z,4.60
2017-12-25T20:34:39.121Z,4.50
2017-12-25T20:37:09.219Z,4.60
2017-12-25T20:39:39.503Z,4.60
2017-12-25T20:42:08.921Z,4.50
2017-12-25T20:44:38.172Z,4.60
2017-12-25T20:47:07.408Z,4.50
2017-12-25T20:49:37.691Z,4.60
2017-12-25T20:52:07.094Z,4.40
2017-12-25T20:54:36.445Z,4.50
2017-12-25T20:57:05.697Z,4.40
2017-12-25T20:59:35.712Z,4.50
2017-12-25T21:02:05.735Z,4.50
2017-12-25T21:04:35.050Z,4.50
2017-12-25T21:07:05.053Z,4.60
2017-12-25T21:09:34.426Z,4.60
2017-12-25T21:12:03.646Z,4.70
2017-12-25T21:14:32.907Z,4.70
2017-12-25T21:17:02.154Z,4.70
2017-12-25T21:19:31.409Z,4.60
2017-12-25T21:22:00.650Z,4.70
2017-12-25T21:24:29.923Z,4.60
2017-12-25T21:26:59.430Z,4.70
2017-12-25T21:29:28.896Z,4.60
2017-12-25T21:31:58.174Z,4.60
2017-12-25T21:34:27.884Z,4.50
2017-12-25T21:36:57.150Z,4.50
2017-12-25T21:39:26.414Z,4.60
2017-12-25T21:41:56.514Z,4.50
2017-12-25T21:44:25.735Z,4.60
2017-12-25T21:46:55.018Z,4.70
2017-12-25T21:49:24.377Z,4.70
2017-12-25T21:51:53.616Z,4.80
2017-12-25T21:54:23.005Z,4.70
2017-12-25T21:56:53.001Z,4.70
2017-12-25T21:59:22.315Z,4.70
2017-12-25T22:01:51.568Z,4.80
2017-12-25T22:04:20.836Z,4.70
2017-12-25T22:06:50.097Z,4.70
2017-12-25T22:09:19.379Z,4.70
2017-12-25T22:11:48.680Z,4.60
2017-12-25T22:14:18.779Z,4.80
2017-12-25T22:16:48.108Z,4.80
2017-12-25T22:19:17.354Z,4.70
2017-12-25T22:21:47.678Z,4.90
2017-12-25T22:24:16.954Z,4.90
2017-12-25T22:26:46.198Z,4.90
2017-12-25T22:29:16.315Z,5.00
2017-12-25T22:31:45.590Z,5.00
2017-12-25T22:34:14.846Z,5.00
2017-12-25T22:36:44.098Z,5.00
2017-12-25T22:39:13.423Z,5.10
2017-12-25T22:41:43.444Z,5.00
2017-12-25T22:44:12.790Z,5.00
2017-12-25T22:46:42.026Z,5.00
2017-12-25T22:49:11.265Z,4.80
2017-12-25T22:51:40.538Z,4.80
2017-12-25T22:54:10.653Z,4.90
2017-12-25T22:56:40.784Z,4.90
2017-12-25T22:59:10.064Z,4.90
2017-12-25T23:01:39.306Z,4.90
2017-12-25T23:04:08.566Z,4.90
2017-12-25T23:06:37.852Z,4.90
2017-12-25T23:09:07.130Z,4.90
2017-12-25T23:11:36.388Z,4.90
2017-12-25T23:14:05.671Z,5.00
2017-12-25T23:16:35.763Z,5.10
2017-12-25T23:19:05.543Z,5.10
2017-12-25T23:21:34.823Z,5.20
2017-12-25T23:24:04.922Z,5.10
2017-12-25T23:26:35.050Z,4.90
2017-12-25T23:29:05.113Z,4.90
2017-12-25T23:31:34.434Z,4.90
2017-12-25T23:34:03.708Z,4.70
2017-12-25T23:36:33.081Z,4.70
2017-12-25T23:39:02.343Z,4.60
2017-12-25T23:41:31.607Z,4.60
2017-12-25T23:44:00.866Z,4.50
2017-12-25T23:46:31.638Z,4.50
2017-12-25T23:49:01.033Z,4.50
2017-12-25T23:51:30.294Z,4.50
2017-12-25T23:53:59.538Z,4.50
2017-12-25T23:56:28.806Z,4.50
2017-12-25T23:58:58.049Z,4.60
